createdAt,value
2023-01-22T00:01:16.894Z,95848.59
2023-01-22T00:03:46.803Z,95858.38
2023-01-22T00:06:15.228Z,95843.25
2023-01-22T00:08:42.935Z,95845.09
2023-01-22T00:11:12.632Z,95847.94
2023-01-22T00:13:40.493Z,95846.72
2023-01-22T00:16:09.203Z,95851.63
2023-01-22T00:18:36.916Z,95848.16
2023-01-22T00:21:07.522Z,95842.63
2023-01-22T00:23:36.957Z,95852.25
2023-01-22T00:26:06.189Z,95847.75
2023-01-22T00:28:37.566Z,95852.06
2023-01-22T00:31:07.166Z,95854.31
2023-01-22T00:33:35.601Z,95847.56
2023-01-22T00:36:07.031Z,95851.84
2023-01-22T00:38:34.966Z,95845.91
2023-01-22T00:41:03.264Z,95842.44
2023-01-22T00:43:35.810Z,95852.06
2023-01-22T00:46:03.529Z,95844.91
2023-01-22T00:48:31.547Z,95851.22
2023-01-22T00:50:59.229Z,95849.16
2023-01-22T00:53:27.032Z,95845.47
2023-01-22T00:55:56.632Z,95839.38
2023-01-22T00:58:24.794Z,95837.53
2023-01-22T01:00:54.104Z,95843.91
2023-01-22T01:03:30.345Z,95841.25
2023-01-22T01:06:00.137Z,95841.03
2023-01-22T01:08:32.519Z,95846.16
2023-01-22T01:11:02.762Z,95837.34
2023-01-22T01:13:33.063Z,95845.53
2023-01-22T01:16:04.230Z,95851.66
2023-01-22T01:18:32.450Z,95850.06
2023-01-22T01:21:01.210Z,95850.44
2023-01-22T01:23:29.815Z,95853.09
2023-01-22T01:25:57.912Z,95850.69
2023-01-22T01:28:25.976Z,95856.00
2023-01-22T01:30:53.751Z,95853.72
2023-01-22T01:33:23.192Z,95844.09
2023-01-22T01:35:50.850Z,95847.00
2023-01-22T01:38:18.497Z,95849.22
2023-01-22T01:40:46.234Z,95853.72
2023-01-22T01:43:17.416Z,95856.78
2023-01-22T01:45:45.663Z,95850.03
2023-01-22T01:48:26.095Z,95852.69
2023-01-22T01:51:02.394Z,95850.44
2023-01-22T01:53:30.395Z,95849.44
2023-01-22T01:55:59.980Z,95851.25
2023-01-22T01:58:34.101Z,95852.72
2023-01-22T02:01:09.704Z,95844.09
2023-01-22T02:03:39.164Z,95845.75
2023-01-22T02:06:11.371Z,95840.81
2023-01-22T02:08:39.680Z,95844.31
2023-01-22T02:11:07.870Z,95840.44
2023-01-22T02:13:37.397Z,95836.94
2023-01-22T02:16:05.874Z,95842.66
2023-01-22T02:18:33.580Z,95847.75
2023-01-22T02:21:02.929Z,95841.00
2023-01-22T02:23:32.948Z,95844.47
2023-01-22T02:26:01.437Z,95845.91
2023-01-22T02:28:29.121Z,95845.28
2023-01-22T02:30:56.975Z,95844.66
2023-01-22T02:33:24.715Z,95849.59
2023-01-22T02:35:52.482Z,95850.59
2023-01-22T02:38:21.580Z,95848.97
2023-01-22T02:40:50.021Z,95847.13
2023-01-22T02:43:17.953Z,95855.09
2023-01-22T02:45:45.704Z,95851.63
2023-01-22T02:48:14.935Z,95850.22
2023-01-22T02:50:44.980Z,95848.56
2023-01-22T02:53:14.927Z,95844.91
2023-01-22T02:55:46.178Z,95849.38
2023-01-22T02:58:14.516Z,95847.13
2023-01-22T03:00:42.260Z,95843.66
2023-01-22T03:03:15.631Z,95844.84
2023-01-22T03:05:49.046Z,95844.22
2023-01-22T03:08:20.178Z,95853.41
2023-01-22T03:10:49.205Z,95844.44
2023-01-22T03:13:34.298Z,95849.94
2023-01-22T03:16:22.267Z,95837.88
2023-01-22T03:19:07.459Z,95854.25
2023-01-22T03:21:35.159Z,95850.13
2023-01-22T03:24:02.855Z,95847.47
2023-01-22T03:26:31.882Z,95851.19
2023-01-22T03:28:59.569Z,95854.47
2023-01-22T03:31:27.531Z,95853.47
2023-01-22T03:33:55.206Z,95857.97
2023-01-22T03:36:22.840Z,95860.03
2023-01-22T03:38:50.544Z,95854.72
2023-01-22T03:41:19.099Z,95854.28
2023-01-22T03:43:48.178Z,95849.59
2023-01-22T03:46:18.126Z,95858.19
2023-01-22T03:48:46.105Z,95860.88
2023-01-22T03:51:16.430Z,95866.81
2023-01-22T03:53:45.078Z,95867.03
2023-01-22T03:56:15.995Z,95868.03
2023-01-22T03:58:44.303Z,95871.53
2023-01-22T04:01:15.949Z,95867.03
2023-01-22T04:03:43.725Z,95869.06
2023-01-22T04:06:12.885Z,95872.72
2023-01-22T04:08:42.388Z,95870.28
2023-01-22T04:11:10.418Z,95880.09
2023-01-22T04:13:39.396Z,95876.59
2023-01-22T04:16:07.969Z,95878.06
2023-01-22T04:18:37.323Z,95873.75
2023-01-22T04:21:05.760Z,95883.97
2023-01-22T04:23:33.466Z,95883.75
2023-01-22T04:26:01.349Z,95890.28
2023-01-22T04:28:29.065Z,95892.75
2023-01-22T04:30:57.272Z,95893.16
2023-01-22T04:33:25.057Z,95890.50
2023-01-22T04:35:55.974Z,95886.81
2023-01-22T04:38:23.859Z,95899.69
2023-01-22T04:40:51.493Z,95891.69
2023-01-22T04:43:19.209Z,95888.44
2023-01-22T04:45:46.937Z,95899.09
2023-01-22T04:48:14.618Z,95899.47
2023-01-22T04:50:42.250Z,95896.44
2023-01-22T04:53:11.974Z,95904.22
2023-01-22T04:55:41.831Z,95903.97
2023-01-22T04:58:09.856Z,95901.13
2023-01-22T05:00:37.691Z,95904.41
2023-01-22T05:03:06.193Z,95908.72
2023-01-22T05:05:35.113Z,95895.19
2023-01-22T05:08:02.827Z,95899.47
2023-01-22T05:10:31.893Z,95907.47
2023-01-22T05:13:03.692Z,95906.25
2023-01-22T05:15:31.395Z,95911.94
2023-01-22T05:20:30.056Z,95911.72
2023-01-22T05:22:57.682Z,95912.16
2023-01-22T05:25:25.382Z,95907.84
2023-01-22T05:27:54.336Z,95914.41
2023-01-22T05:30:22.155Z,95924.03
2023-01-22T05:32:49.866Z,95921.31
2023-01-22T05:35:17.753Z,95920.94
2023-01-22T05:37:45.395Z,95930.13
2023-01-22T05:40:14.106Z,95927.03
2023-01-22T05:42:41.790Z,95934.81
2023-01-22T05:45:11.923Z,95925.81
2023-01-22T05:47:39.647Z,95928.06
2023-01-22T05:50:09.891Z,95932.34
2023-01-22T05:52:44.215Z,95938.25
2023-01-22T05:55:11.934Z,95932.09
2023-01-22T05:57:39.605Z,95939.06
2023-01-22T06:00:08.729Z,95942.91
2023-01-22T06:02:37.779Z,95938.41
2023-01-22T06:05:06.226Z,95949.63
2023-01-22T06:07:33.893Z,95942.91
2023-01-22T06:10:01.569Z,95939.19
2023-01-22T06:12:29.241Z,95936.91
2023-01-22T06:14:56.877Z,95943.06
2023-01-22T06:17:24.581Z,95938.38
2023-01-22T06:19:53.581Z,95951.09
2023-01-22T06:22:21.251Z,95956.78
2023-01-22T06:24:48.921Z,95958.44
2023-01-22T06:27:18.885Z,95958.44
2023-01-22T06:29:46.529Z,95957.84
2023-01-22T06:32:14.210Z,95960.06
2023-01-22T06:34:41.844Z,95963.53
2023-01-22T06:37:13.897Z,95960.31
2023-01-22T06:39:41.571Z,95965.06
2023-01-22T06:42:09.255Z,95965.25
2023-01-22T06:44:36.902Z,95971.78
2023-01-22T06:47:05.025Z,95970.56
2023-01-22T06:49:32.809Z,95961.97
2023-01-22T06:52:00.518Z,95974.22
2023-01-22T06:54:29.686Z,95972.59
2023-01-22T06:56:57.335Z,95980.75
2023-01-22T06:59:25.123Z,95979.13
2023-01-22T07:01:52.792Z,95983.66
2023-01-22T07:04:20.568Z,95981.59
2023-01-22T07:06:48.437Z,95981.59
2023-01-22T07:09:16.143Z,95988.75
2023-01-22T07:11:45.136Z,95990.81
2023-01-22T07:14:12.779Z,96002.03
2023-01-22T07:16:40.469Z,96002.28
2023-01-22T07:19:08.155Z,96008.81
2023-01-22T07:21:35.819Z,95999.00
2023-01-22T07:24:03.472Z,95994.50
2023-01-22T07:26:31.133Z,96002.53
2023-01-22T07:29:00.127Z,96003.13
2023-01-22T07:31:27.801Z,96006.25
2023-01-22T07:33:55.832Z,96000.94
2023-01-22T07:36:23.769Z,95998.50
2023-01-22T07:38:51.461Z,96005.72
2023-01-22T07:41:25.923Z,96003.91
2023-01-22T07:43:56.052Z,96000.00
2023-01-22T07:46:25.345Z,96000.44
2023-01-22T07:48:53.076Z,95996.97
2023-01-22T07:51:21.002Z,96000.69
2023-01-22T07:53:48.712Z,95995.00
2023-01-22T07:56:18.029Z,96002.13
2023-01-22T07:58:45.788Z,96004.38
2023-01-22T08:01:13.496Z,96003.94
2023-01-22T08:03:42.580Z,96003.56
2023-01-22T08:06:11.571Z,96001.91
2023-01-22T08:08:39.644Z,96005.81
2023-01-22T08:11:07.327Z,96015.88
2023-01-22T08:13:35.137Z,96014.50
2023-01-22T08:16:02.844Z,96010.44
2023-01-22T08:18:30.545Z,96010.47
2023-01-22T08:21:01.905Z,96015.81
2023-01-22T08:23:29.925Z,96018.53
2023-01-22T08:25:59.686Z,96018.94
2023-01-22T08:28:27.779Z,96015.09
2023-01-22T08:31:27.110Z,96006.88
2023-01-22T08:33:55.821Z,96020.22
2023-01-22T08:36:24.848Z,96020.63
2023-01-22T08:38:52.540Z,96019.84
2023-01-22T08:41:20.230Z,96023.53
2023-01-22T08:43:47.960Z,96028.66
2023-01-22T08:46:15.822Z,96024.19
2023-01-22T08:48:44.218Z,96028.47
2023-01-22T08:51:12.412Z,96034.81
2023-01-22T08:53:41.494Z,96037.31
2023-01-22T08:56:09.519Z,96028.72
2023-01-22T08:58:37.148Z,96029.94
2023-01-22T09:01:05.045Z,96030.75
2023-01-22T09:03:32.786Z,96038.94
2023-01-22T09:06:00.484Z,96039.16
2023-01-22T09:08:28.131Z,96044.28
2023-01-22T09:10:57.175Z,96045.09
2023-01-22T09:13:24.882Z,96042.41
2023-01-22T09:15:52.614Z,96049.31
2023-01-22T09:18:20.280Z,96053.59
2023-01-22T09:20:47.946Z,96054.22
2023-01-22T09:23:15.758Z,96061.03
2023-01-22T09:25:43.643Z,96059.34
2023-01-22T09:28:12.656Z,96063.19
2023-01-22T09:30:42.254Z,96067.53
2023-01-22T09:33:10.216Z,96068.78
2023-01-22T09:35:37.860Z,96076.84
2023-01-22T09:38:05.755Z,96071.94
2023-01-22T09:40:40.936Z,96072.75
2023-01-22T09:43:26.681Z,96077.88
2023-01-22T09:45:57.870Z,96081.00
2023-01-22T09:48:37.615Z,96085.50
2023-01-22T09:51:06.270Z,96078.97
2023-01-22T09:53:35.752Z,96085.13
2023-01-22T09:56:06.866Z,96091.69
2023-01-22T09:58:36.646Z,96093.13
2023-01-22T10:01:06.994Z,96099.47
2023-01-22T10:03:42.016Z,96093.53
2023-01-22T10:06:15.600Z,96102.75
2023-01-22T10:08:53.063Z,96101.94
2023-01-22T10:11:21.267Z,96098.06
2023-01-22T10:13:52.268Z,96101.16
2023-01-22T10:16:19.948Z,96093.53
2023-01-22T10:18:56.561Z,96088.63
2023-01-22T10:21:27.228Z,96095.78
2023-01-22T10:23:56.768Z,96087.94
2023-01-22T10:26:35.319Z,96088.34
2023-01-22T10:29:07.928Z,96088.16
2023-01-22T10:31:38.087Z,96086.81
2023-01-22T10:34:13.154Z,96089.66
2023-01-22T10:36:41.206Z,96080.41
2023-01-22T10:39:13.399Z,96081.81
2023-01-22T10:41:41.416Z,96085.97
2023-01-22T10:44:18.780Z,96076.66
2023-01-22T10:46:49.159Z,96074.53
2023-01-22T10:49:18.601Z,96073.66
2023-01-22T10:51:52.613Z,96073.00
2023-01-22T10:54:24.739Z,96068.31
2023-01-22T10:57:04.835Z,96075.59
2023-01-22T10:59:34.580Z,96074.53
2023-01-22T11:02:04.047Z,96081.09
2023-01-22T11:04:34.005Z,96075.25
2023-01-22T11:07:07.737Z,96069.91
2023-01-22T11:09:40.713Z,96072.13
2023-01-22T11:12:17.116Z,96066.41
2023-01-22T11:14:48.792Z,96072.34
2023-01-22T11:17:22.091Z,96076.53
2023-01-22T11:19:58.114Z,96072.09
2023-01-22T11:22:33.361Z,96072.63
2023-01-22T11:25:01.831Z,96075.78
2023-01-22T11:27:52.720Z,96076.41
2023-01-22T11:31:00.976Z,96075.78
2023-01-22T11:33:42.749Z,96070.03
2023-01-22T11:36:18.972Z,96079.50
2023-01-22T11:38:51.329Z,96076.34
2023-01-22T11:41:31.501Z,96084.00
2023-01-22T11:44:16.163Z,96077.44
2023-01-22T11:46:59.818Z,96075.75
2023-01-22T11:49:39.794Z,96077.63
2023-01-22T11:52:21.476Z,96073.59
2023-01-22T11:55:02.723Z,96078.28
2023-01-22T11:57:34.393Z,96069.63
2023-01-22T12:00:25.729Z,96073.13
2023-01-22T12:03:13.672Z,96062.47
2023-01-22T12:05:48.618Z,96065.75
2023-01-22T12:08:30.083Z,96073.56
2023-01-22T12:11:13.661Z,96069.50
2023-01-22T12:14:10.367Z,96060.66
2023-01-22T12:16:46.274Z,96067.41
2023-01-22T12:19:37.746Z,96063.63
2023-01-22T12:22:10.334Z,96059.41
2023-01-22T12:24:42.484Z,96055.56
2023-01-22T12:27:16.167Z,96051.34
2023-01-22T12:29:46.851Z,96059.53
2023-01-22T12:32:15.420Z,96053.13
2023-01-22T12:34:48.926Z,96056.44
2023-01-22T12:37:21.171Z,96061.16
2023-01-22T12:39:59.754Z,96060.19
2023-01-22T12:42:35.725Z,96056.63
2023-01-22T12:45:18.332Z,96057.78
2023-01-22T12:47:55.535Z,96065.28
2023-01-22T12:50:26.945Z,96066.44
2023-01-22T12:53:02.018Z,96068.41
2023-01-22T12:55:32.756Z,96068.69
2023-01-22T12:58:00.441Z,96073.31
2023-01-22T13:00:34.539Z,96079.16
2023-01-22T13:03:04.459Z,96082.25
2023-01-22T13:05:45.467Z,96080.50
2023-01-22T13:08:38.160Z,96084.25
2023-01-22T13:11:08.454Z,96086.69
2023-01-22T13:13:44.757Z,96089.53
2023-01-22T13:16:23.893Z,96087.31
2023-01-22T13:18:55.220Z,96093.91
2023-01-22T13:21:29.507Z,96088.97
2023-01-22T13:24:01.730Z,96087.53
2023-01-22T13:26:31.521Z,96103.34
2023-01-22T13:29:02.216Z,96100.09
2023-01-22T13:31:29.932Z,96099.47
2023-01-22T13:33:59.621Z,96097.66
2023-01-22T13:36:29.289Z,96099.88
2023-01-22T13:38:58.140Z,96103.81
2023-01-22T13:41:30.458Z,96100.09
2023-01-22T13:43:58.378Z,96101.94
2023-01-22T13:46:28.591Z,96110.34
2023-01-22T13:49:05.303Z,96108.09
2023-01-22T13:51:36.176Z,96109.56
2023-01-22T13:54:05.945Z,96118.59
2023-01-22T13:56:33.859Z,96125.56
2023-01-22T13:59:18.239Z,96118.97
2023-01-22T14:01:46.576Z,96123.69
2023-01-22T14:04:36.953Z,96125.16
2023-01-22T14:07:06.463Z,96133.34
2023-01-22T14:09:36.522Z,96136.22
2023-01-22T14:12:16.387Z,96133.97
2023-01-22T14:14:44.890Z,96137.66
2023-01-22T14:17:23.251Z,96140.97
2023-01-22T14:19:51.297Z,96142.19
2023-01-22T14:22:20.385Z,96141.38
2023-01-22T14:24:52.348Z,96140.75
2023-01-22T14:27:20.526Z,96151.22
2023-01-22T14:29:48.388Z,96142.41
2023-01-22T14:32:16.117Z,96144.63
2023-01-22T14:34:43.782Z,96148.16
2023-01-22T14:37:16.504Z,96155.31
2023-01-22T14:39:45.835Z,96153.25
2023-01-22T14:42:13.601Z,96160.44
2023-01-22T14:44:41.414Z,96163.31
2023-01-22T14:47:09.171Z,96164.16
2023-01-22T14:49:36.892Z,96162.94
2023-01-22T14:52:05.065Z,96159.81
2023-01-22T14:54:32.805Z,96174.81
2023-01-22T14:57:03.439Z,96176.25
2023-01-22T14:59:31.261Z,96179.91
2023-01-22T15:01:58.968Z,96177.66
2023-01-22T15:04:26.715Z,96179.50
2023-01-22T15:06:54.465Z,96186.66
2023-01-22T15:09:22.200Z,96189.53
2023-01-22T15:11:50.082Z,96189.13
2023-01-22T15:14:19.189Z,96186.41
2023-01-22T15:16:46.891Z,96189.88
2023-01-22T15:19:14.977Z,96189.69
2023-01-22T15:21:43.146Z,96193.16
2023-01-22T15:24:10.947Z,96198.69
2023-01-22T15:26:39.252Z,96193.78
2023-01-22T15:29:08.829Z,96196.84
2023-01-22T15:31:38.453Z,96194.75
2023-01-22T15:34:06.256Z,96197.41
2023-01-22T15:36:36.019Z,96197.59
2023-01-22T15:39:04.184Z,96201.88
2023-01-22T15:41:33.545Z,96205.94
2023-01-22T15:44:02.557Z,96198.06
2023-01-22T15:46:32.442Z,96204.03
2023-01-22T15:49:01.847Z,96205.81
2023-01-22T15:51:30.421Z,96200.63
2023-01-22T15:53:59.868Z,96193.25
2023-01-22T15:56:29.219Z,96206.75
2023-01-22T15:58:58.161Z,96201.94
2023-01-22T16:01:27.055Z,96202.56
2023-01-22T16:03:55.862Z,96220.94
2023-01-22T16:06:26.544Z,96209.84
2023-01-22T16:08:57.555Z,96210.66
2023-01-22T16:11:26.187Z,96211.03
2023-01-22T16:13:54.091Z,96220.66
2023-01-22T16:16:24.141Z,96218.81
2023-01-22T16:18:52.483Z,96220.03
2023-01-22T16:21:21.767Z,96223.88
2023-01-22T16:23:54.280Z,96225.91
2023-01-22T16:26:24.646Z,96231.63
2023-01-22T16:28:54.420Z,96225.66
2023-01-22T16:31:24.265Z,96231.16
2023-01-22T16:33:54.668Z,96232.41
2023-01-22T16:36:24.710Z,96238.31
2023-01-22T16:38:54.163Z,96244.69
2023-01-22T16:41:26.008Z,96244.69
2023-01-22T16:43:55.778Z,96244.69
2023-01-22T16:46:25.532Z,96248.38
2023-01-22T16:49:00.566Z,96251.41
2023-01-22T16:51:33.884Z,96250.59
2023-01-22T16:54:03.328Z,96254.25
2023-01-22T16:56:32.404Z,96246.72
2023-01-22T16:59:00.400Z,96249.31
2023-01-22T17:01:30.324Z,96260.31
2023-01-22T17:03:58.138Z,96268.31
2023-01-22T17:06:28.481Z,96267.25
2023-01-22T17:08:56.350Z,96264.97
2023-01-22T17:11:25.451Z,96261.22
2023-01-22T17:13:53.916Z,96269.38
2023-01-22T17:16:21.626Z,96262.59
2023-01-22T17:18:49.323Z,96264.63
2023-01-22T17:21:19.590Z,96265.63
2023-01-22T17:23:47.298Z,96270.53
2023-01-22T17:26:17.338Z,96277.28
2023-01-22T17:28:46.470Z,96277.34
2023-01-22T17:31:16.482Z,96281.03
2023-01-22T17:33:44.832Z,96279.56
2023-01-22T17:36:14.838Z,96277.34
2023-01-22T17:38:42.936Z,96282.03
2023-01-22T17:41:12.175Z,96282.00
2023-01-22T17:43:39.848Z,96284.94
2023-01-22T17:46:10.947Z,96279.75
2023-01-22T17:48:39.440Z,96278.00
2023-01-22T17:51:10.139Z,96289.00
2023-01-22T17:53:39.393Z,96285.06
2023-01-22T17:56:09.405Z,96287.31
2023-01-22T17:58:37.615Z,96286.75
2023-01-22T18:01:07.396Z,96291.81
2023-01-22T18:03:37.023Z,96294.56
2023-01-22T18:06:05.569Z,96296.22
2023-01-22T18:08:39.331Z,96295.69
2023-01-22T18:11:09.457Z,96295.09
2023-01-22T18:13:38.214Z,96301.53
2023-01-22T18:16:06.926Z,96308.75
2023-01-22T18:18:36.054Z,96304.63
2023-01-22T18:21:03.799Z,96305.19
2023-01-22T18:23:31.467Z,96314.41
2023-01-22T18:25:59.858Z,96315.13
2023-01-22T18:28:28.449Z,96322.16
2023-01-22T18:30:56.484Z,96314.91
2023-01-22T18:33:24.236Z,96316.81
2023-01-22T18:35:54.135Z,96316.38
2023-01-22T18:38:26.525Z,96313.00
2023-01-22T18:40:54.432Z,96322.47
2023-01-22T18:43:22.168Z,96329.44
2023-01-22T18:45:49.849Z,96323.72
2023-01-22T18:48:17.848Z,96320.13
2023-01-22T18:50:53.801Z,96329.25
2023-01-22T18:53:21.595Z,96333.09
2023-01-22T18:55:49.430Z,96333.00
2023-01-22T18:58:27.325Z,96337.34
2023-01-22T19:00:56.277Z,96336.72
2023-01-22T19:03:24.726Z,96338.09
2023-01-22T19:05:54.660Z,96336.94
2023-01-22T19:08:22.904Z,96341.47
2023-01-22T19:10:50.843Z,96342.50
2023-01-22T19:13:20.813Z,96340.88
2023-01-22T19:15:48.610Z,96348.13
2023-01-22T19:18:16.543Z,96346.50
2023-01-22T19:20:44.193Z,96341.91
2023-01-22T19:23:13.683Z,96351.66
2023-01-22T19:25:41.451Z,96354.34
2023-01-22T19:28:09.295Z,96359.97
2023-01-22T19:30:37.127Z,96359.31
2023-01-22T19:33:05.012Z,96359.66
2023-01-22T19:35:32.686Z,96355.69
2023-01-22T19:38:00.361Z,96371.06
2023-01-22T19:40:29.425Z,96366.47
2023-01-22T19:42:59.046Z,96373.91
2023-01-22T19:45:26.665Z,96378.03
2023-01-22T19:47:55.562Z,96376.91
2023-01-22T19:50:25.257Z,96382.69
2023-01-22T19:52:52.954Z,96377.22
2023-01-22T19:55:21.231Z,96390.84
2023-01-22T19:57:50.444Z,96392.00
2023-01-22T20:00:19.059Z,96390.00
2023-01-22T20:02:46.764Z,96399.25
2023-01-22T20:05:16.610Z,96394.47
2023-01-22T20:07:45.409Z,96406.84
2023-01-22T20:10:15.455Z,96401.72
2023-01-22T20:12:43.814Z,96402.56
2023-01-22T20:15:14.895Z,96399.25
2023-01-22T20:17:43.219Z,96410.78
2023-01-22T20:20:12.145Z,96403.03
2023-01-22T20:22:39.831Z,96408.31
2023-01-22T20:25:09.206Z,96408.97
2023-01-22T20:27:37.290Z,96415.06
2023-01-22T20:30:06.005Z,96418.38
2023-01-22T20:32:35.572Z,96422.19
2023-01-22T20:35:03.294Z,96415.41
2023-01-22T20:37:31.966Z,96417.91
2023-01-22T20:39:59.997Z,96415.06
2023-01-22T20:42:28.387Z,96411.13
2023-01-22T20:44:58.202Z,96417.41
2023-01-22T20:47:25.922Z,96416.06
2023-01-22T20:49:55.070Z,96419.06
2023-01-22T20:52:22.727Z,96418.38
2023-01-22T20:55:01.515Z,96409.47
2023-01-22T20:57:30.445Z,96423.19
2023-01-22T20:59:58.502Z,96422.69
2023-01-22T21:02:26.320Z,96417.22
2023-01-22T21:04:56.453Z,96412.78
2023-01-22T21:07:24.118Z,96410.78
2023-01-22T21:09:51.856Z,96411.78
2023-01-22T21:12:19.684Z,96401.06
2023-01-22T21:14:47.372Z,96415.94
2023-01-22T21:17:18.796Z,96415.56
2023-01-22T21:19:46.507Z,96412.94
2023-01-22T21:22:15.539Z,96421.34
2023-01-22T21:24:43.315Z,96430.94
2023-01-22T21:27:10.977Z,96432.06
2023-01-22T21:29:38.883Z,96440.16
2023-01-22T21:32:06.690Z,96438.19
2023-01-22T21:34:36.275Z,96438.06
2023-01-22T21:37:04.145Z,96434.75
2023-01-22T21:39:33.147Z,96436.06
2023-01-22T21:42:14.709Z,96440.03
2023-01-22T21:44:59.793Z,96434.75
2023-01-22T21:47:27.602Z,96445.47
2023-01-22T21:49:55.395Z,96443.97
2023-01-22T21:52:23.430Z,96430.25
2023-01-22T21:54:52.680Z,96435.22
2023-01-22T21:57:20.557Z,96435.06
2023-01-22T21:59:48.269Z,96431.59
2023-01-22T22:02:17.457Z,96433.88
2023-01-22T22:04:45.491Z,96432.59
2023-01-22T22:07:13.767Z,96432.53
2023-01-22T22:09:43.929Z,96442.75
2023-01-22T22:12:13.040Z,96440.06
2023-01-22T22:14:40.701Z,96444.50
2023-01-22T22:17:08.659Z,96449.91
2023-01-22T22:19:36.308Z,96448.88
2023-01-22T22:22:04.030Z,96443.75
2023-01-22T22:24:31.682Z,96448.69
2023-01-22T22:26:59.402Z,96448.81
2023-01-22T22:29:28.448Z,96442.69
2023-01-22T22:31:56.123Z,96439.84
2023-01-22T22:34:23.818Z,96447.41
2023-01-22T22:36:51.571Z,96442.94
2023-01-22T22:39:19.281Z,96451.84
2023-01-22T22:41:46.976Z,96441.19
2023-01-22T22:44:16.072Z,96445.81
2023-01-22T22:46:45.175Z,96443.44
2023-01-22T22:49:16.000Z,96445.72
2023-01-22T22:51:48.290Z,96457.78
2023-01-22T22:54:17.690Z,96447.88
2023-01-22T23:01:51.626Z,96450.63
2023-01-22T23:04:19.419Z,96448.97
2023-01-22T23:06:47.806Z,96458.50
2023-01-22T23:09:17.879Z,96466.94
2023-01-22T23:11:45.701Z,96460.66
2023-01-22T23:14:13.843Z,96464.25
2023-01-22T23:16:43.567Z,96472.41
2023-01-22T23:19:19.082Z,96472.03
2023-01-22T23:21:49.487Z,96478.81
2023-01-22T23:24:17.196Z,96479.13
2023-01-22T23:26:46.319Z,96475.50
2023-01-22T23:29:16.662Z,96472.09
2023-01-22T23:31:44.530Z,96467.44
2023-01-22T23:34:15.350Z,96469.66
2023-01-22T23:36:45.175Z,96462.78
2023-01-22T23:39:15.312Z,96469.66
2023-01-22T23:41:44.130Z,96477.13
2023-01-22T23:44:12.485Z,96468.97
2023-01-22T23:46:40.185Z,96471.09
2023-01-22T23:49:10.646Z,96476.88
2023-01-22T23:51:42.234Z,96481.78
2023-01-22T23:54:10.034Z,96475.91
2023-01-22T23:56:37.788Z,96468.53
2023-01-22T23:59:05.569Z,96472.19
